createdAt,value
2022-10-28T00:01:17.312Z,21.31
2022-10-28T00:03:45.818Z,21.02
2022-10-28T00:06:13.898Z,21.24
2022-10-28T00:08:41.493Z,20.80
2022-10-28T00:11:09.435Z,21.01
2022-10-28T00:13:38.590Z,21.36
2022-10-28T00:16:06.862Z,21.47
2022-10-28T00:18:34.340Z,21.49
2022-10-28T00:21:02.853Z,21.63
2022-10-28T00:23:30.741Z,21.81
2022-10-28T00:26:04.479Z,21.80
2022-10-28T00:28:31.970Z,21.85
2022-10-28T00:31:05.579Z,21.88
2022-10-28T00:33:33.059Z,21.58
2022-10-28T00:36:08.232Z,21.80
2022-10-28T00:38:35.693Z,21.88
2022-10-28T00:41:03.253Z,22.02
2022-10-28T00:43:38.117Z,21.84
2022-10-28T00:46:07.768Z,21.86
2022-10-28T00:48:35.224Z,21.70
2022-10-28T00:51:02.686Z,21.56
2022-10-28T00:53:30.987Z,20.85
2022-10-28T00:55:58.549Z,21.23
2022-10-28T00:58:26.025Z,21.21
2022-10-28T01:00:53.550Z,21.36
2022-10-28T01:03:22.577Z,21.31
2022-10-28T01:05:50.843Z,21.28
2022-10-28T01:08:18.288Z,21.21
2022-10-28T01:10:50.191Z,21.11
2022-10-28T01:13:20.022Z,20.94
2022-10-28T01:15:49.424Z,20.96
2022-10-28T01:18:18.903Z,20.80
2022-10-28T01:21:07.571Z,20.66
2022-10-28T01:23:37.233Z,20.76
2022-10-28T01:26:23.052Z,20.66
2022-10-28T01:29:05.387Z,20.60
2022-10-28T01:31:36.064Z,20.52
2022-10-28T01:34:07.007Z,20.72
2022-10-28T01:36:35.484Z,20.49
2022-10-28T01:39:04.987Z,20.49
2022-10-28T01:41:34.330Z,20.41
2022-10-28T01:44:02.893Z,20.22
2022-10-28T01:46:32.365Z,20.08
2022-10-28T01:49:02.335Z,19.75
2022-10-28T01:51:30.597Z,19.67
2022-10-28T01:53:58.317Z,19.93
2022-10-28T01:56:26.313Z,19.38
2022-10-28T01:58:54.022Z,19.62
2022-10-28T02:01:21.619Z,19.85
2022-10-28T02:03:49.153Z,19.59
2022-10-28T02:06:18.528Z,19.84
2022-10-28T02:08:54.091Z,19.56
2022-10-28T02:11:32.232Z,19.52
2022-10-28T02:14:01.186Z,19.47
2022-10-28T02:16:29.561Z,19.33
2022-10-28T02:18:59.245Z,19.48
2022-10-28T02:21:29.197Z,19.36
2022-10-28T02:23:57.032Z,19.20
2022-10-28T02:26:27.069Z,19.32
2022-10-28T02:28:56.210Z,19.33
2022-10-28T02:31:24.589Z,19.39
2022-10-28T02:33:52.610Z,19.31
2022-10-28T02:36:20.097Z,19.28
2022-10-28T02:38:49.925Z,19.32
2022-10-28T02:41:17.794Z,19.13
2022-10-28T02:43:45.373Z,18.88
2022-10-28T02:46:12.844Z,19.23
2022-10-28T02:48:41.203Z,18.80
2022-10-28T02:51:09.168Z,18.97
2022-10-28T02:53:38.227Z,19.03
2022-10-28T02:56:07.265Z,18.63
2022-10-28T02:58:38.893Z,18.85
2022-10-28T03:01:06.576Z,18.61
2022-10-28T03:03:34.058Z,18.65
2022-10-28T03:06:01.538Z,18.88
2022-10-28T03:08:28.999Z,18.60
2022-10-28T03:10:56.481Z,18.68
2022-10-28T03:13:25.338Z,18.75
2022-10-28T03:15:52.829Z,18.84
2022-10-28T03:18:20.350Z,18.76
2022-10-28T03:20:48.223Z,18.74
2022-10-28T03:23:15.666Z,18.68
2022-10-28T03:25:43.149Z,18.60
2022-10-28T03:28:10.600Z,18.63
2022-10-28T03:30:39.456Z,18.80
2022-10-28T03:33:06.948Z,18.86
2022-10-28T03:35:34.392Z,18.60
2022-10-28T03:38:01.853Z,18.57
2022-10-28T03:40:29.333Z,18.72
2022-10-28T03:42:57.026Z,18.66
2022-10-28T03:45:24.623Z,18.94
2022-10-28T03:47:54.067Z,19.11
2022-10-28T03:50:21.734Z,19.08
2022-10-28T03:52:49.200Z,19.22
2022-10-28T03:55:16.782Z,19.04
2022-10-28T03:57:44.626Z,19.25
2022-10-28T04:00:12.548Z,19.33
2022-10-28T04:02:40.017Z,19.46
2022-10-28T04:05:09.122Z,19.49
2022-10-28T04:07:36.631Z,19.54
2022-10-28T04:10:04.244Z,19.70
2022-10-28T04:12:31.713Z,19.75
2022-10-28T04:14:59.172Z,19.65
2022-10-28T04:17:26.628Z,19.28
2022-10-28T04:19:54.085Z,19.61
2022-10-28T04:22:22.926Z,19.63
2022-10-28T04:24:50.449Z,19.58
2022-10-28T04:27:17.922Z,19.57
2022-10-28T04:29:45.353Z,19.61
2022-10-28T04:32:12.834Z,19.67
2022-10-28T04:34:40.302Z,19.33
2022-10-28T04:37:07.752Z,19.72
2022-10-28T04:39:36.592Z,19.82
2022-10-28T04:42:04.032Z,19.56
2022-10-28T04:44:31.645Z,19.90
2022-10-28T04:46:59.108Z,19.62
2022-10-28T04:49:26.957Z,19.52
2022-10-28T04:51:54.453Z,19.78
2022-10-28T04:54:21.932Z,19.84
2022-10-28T04:56:50.733Z,19.83
2022-10-28T04:59:18.193Z,20.06
2022-10-28T05:01:46.148Z,20.13
2022-10-28T05:04:13.784Z,19.66
2022-10-28T05:06:41.253Z,19.84
2022-10-28T05:09:08.720Z,20.02
2022-10-28T05:11:36.252Z,20.10
2022-10-28T05:14:05.078Z,20.00
2022-10-28T05:16:32.508Z,19.94
2022-10-28T05:18:59.966Z,19.92
2022-10-28T05:21:27.454Z,19.94
2022-10-28T05:23:54.909Z,20.12
2022-10-28T05:26:22.405Z,20.00
2022-10-28T05:28:50.101Z,20.08
2022-10-28T05:31:19.069Z,20.22
2022-10-28T05:33:46.557Z,20.10
2022-10-28T05:36:14.050Z,19.85
2022-10-28T05:38:42.516Z,19.80
2022-10-28T05:41:10.009Z,19.98
2022-10-28T05:43:37.445Z,19.94
2022-10-28T05:46:05.028Z,19.85
2022-10-28T05:48:34.151Z,19.95
2022-10-28T05:51:01.653Z,19.86
2022-10-28T05:53:29.144Z,19.97
2022-10-28T05:55:56.589Z,19.80
2022-10-28T05:58:24.044Z,20.00
2022-10-28T06:00:51.506Z,19.85
2022-10-28T06:03:19.205Z,19.05
2022-10-28T06:05:48.294Z,19.33
2022-10-28T06:08:16.014Z,19.79
2022-10-28T06:10:49.750Z,19.70
2022-10-28T06:13:17.421Z,19.60
2022-10-28T06:15:50.594Z,19.61
2022-10-28T06:18:19.056Z,19.60
2022-10-28T06:20:53.344Z,19.63
2022-10-28T06:23:21.705Z,19.83
2022-10-28T06:25:49.825Z,19.72
2022-10-28T06:28:17.519Z,19.88
2022-10-28T06:30:45.183Z,19.75
2022-10-28T06:33:12.865Z,19.59
2022-10-28T06:35:40.515Z,19.42
2022-10-28T06:38:09.711Z,19.54
2022-10-28T06:40:37.444Z,19.60
2022-10-28T06:43:06.499Z,19.81
2022-10-28T06:45:34.745Z,19.47
2022-10-28T06:48:06.070Z,19.86
2022-10-28T06:50:37.332Z,19.77
2022-10-28T06:53:05.437Z,19.84
2022-10-28T06:55:34.409Z,19.82
2022-10-28T06:58:02.606Z,19.67
2022-10-28T07:03:03.683Z,19.91
2022-10-28T07:05:31.368Z,19.57
2022-10-28T07:07:59.012Z,19.89
2022-10-28T07:10:26.733Z,19.68
2022-10-28T07:12:56.058Z,19.44
2022-10-28T07:15:24.043Z,20.17
2022-10-28T07:17:55.272Z,19.57
2022-10-28T07:20:23.999Z,20.07
2022-10-28T07:22:57.070Z,19.58
2022-10-28T07:25:24.780Z,20.09
2022-10-28T07:27:52.676Z,20.36
2022-10-28T07:30:21.960Z,20.10
2022-10-28T07:32:50.041Z,19.95
2022-10-28T07:35:17.888Z,20.51
2022-10-28T07:37:45.547Z,20.39
2022-10-28T07:40:13.457Z,20.26
2022-10-28T07:42:41.167Z,20.57
2022-10-28T07:45:09.736Z,20.26
2022-10-28T07:47:38.734Z,20.38
2022-10-28T07:50:07.652Z,20.67
2022-10-28T07:52:36.435Z,20.69
2022-10-28T07:55:04.482Z,20.84
2022-10-28T07:57:32.780Z,21.18
2022-10-28T08:00:00.433Z,21.25
2022-10-28T08:02:28.151Z,20.96
2022-10-28T08:04:57.483Z,21.70
2022-10-28T08:07:25.121Z,21.00
2022-10-28T08:09:53.376Z,21.77
2022-10-28T08:12:21.385Z,21.65
2022-10-28T08:14:49.056Z,21.90
2022-10-28T08:17:16.859Z,21.70
2022-10-28T08:19:44.482Z,22.00
2022-10-28T08:22:13.491Z,21.89
2022-10-28T08:24:41.132Z,21.77
2022-10-28T08:27:08.751Z,21.66
2022-10-28T08:29:36.821Z,21.63
2022-10-28T08:32:04.563Z,21.67
2022-10-28T08:34:32.232Z,22.28
2022-10-28T08:37:00.378Z,21.76
2022-10-28T08:39:29.446Z,22.04
2022-10-28T08:42:04.715Z,22.53
2022-10-28T08:44:58.236Z,22.56
2022-10-28T08:47:38.185Z,22.28
2022-10-28T08:50:13.291Z,21.44
2022-10-28T08:52:45.679Z,22.22
2022-10-28T08:55:17.552Z,22.62
2022-10-28T08:57:48.800Z,22.75
2022-10-28T09:00:22.875Z,23.11
2022-10-28T09:02:57.405Z,22.57
2022-10-28T09:05:26.443Z,22.99
2022-10-28T09:07:54.647Z,23.17
2022-10-28T09:10:37.369Z,23.25
2022-10-28T09:13:10.946Z,23.36
2022-10-28T09:15:44.977Z,23.39
2022-10-28T09:18:19.446Z,23.95
2022-10-28T09:20:53.476Z,23.83
2022-10-28T09:23:24.370Z,24.19
2022-10-28T09:26:04.553Z,23.68
2022-10-28T09:28:43.596Z,23.07
2022-10-28T09:31:15.924Z,23.68
2022-10-28T09:34:08.369Z,24.16
2022-10-28T09:36:38.715Z,23.63
2022-10-28T09:39:07.398Z,23.73
2022-10-28T09:41:39.618Z,23.96
2022-10-28T09:44:14.312Z,24.19
2022-10-28T09:46:42.036Z,24.23
2022-10-28T09:49:14.553Z,23.52
2022-10-28T09:51:45.728Z,23.73
2022-10-28T09:54:14.331Z,24.10
2022-10-28T09:56:43.420Z,24.08
2022-10-28T09:59:14.174Z,23.96
2022-10-28T10:01:43.345Z,24.41
2022-10-28T10:04:19.172Z,24.09
2022-10-28T10:06:48.824Z,24.43
2022-10-28T10:09:21.751Z,24.78
2022-10-28T10:11:51.540Z,24.70
2022-10-28T10:14:22.306Z,24.62
2022-10-28T10:16:53.663Z,24.30
2022-10-28T10:19:21.316Z,24.72
2022-10-28T10:21:51.139Z,24.34
2022-10-28T10:24:32.014Z,24.82
2022-10-28T10:27:03.569Z,24.76
2022-10-28T10:29:32.195Z,24.41
2022-10-28T10:32:09.312Z,24.76
2022-10-28T10:34:37.194Z,24.98
2022-10-28T10:37:05.070Z,25.14
2022-10-28T10:39:34.792Z,24.90
2022-10-28T10:42:04.285Z,25.44
2022-10-28T10:44:32.910Z,25.03
2022-10-28T10:47:17.514Z,25.72
2022-10-28T10:49:44.946Z,24.76
2022-10-28T10:52:17.045Z,24.81
2022-10-28T10:54:46.987Z,25.03
2022-10-28T10:57:18.200Z,24.47
2022-10-28T10:59:46.291Z,25.25
2022-10-28T11:02:20.828Z,24.89
2022-10-28T11:04:50.481Z,25.53
2022-10-28T11:07:17.957Z,25.79
2022-10-28T11:09:48.507Z,26.11
2022-10-28T11:12:18.215Z,25.99
2022-10-28T11:14:54.530Z,25.51
2022-10-28T11:17:24.636Z,26.11
2022-10-28T11:19:53.335Z,25.86
2022-10-28T11:22:22.484Z,26.44
2022-10-28T11:24:56.616Z,26.13
2022-10-28T11:27:28.897Z,25.69
2022-10-28T11:29:56.442Z,25.72
2022-10-28T11:32:26.675Z,26.09
2022-10-28T11:35:00.552Z,26.25
2022-10-28T11:37:31.215Z,26.48
2022-10-28T11:40:01.308Z,26.12
2022-10-28T11:42:31.960Z,26.33
2022-10-28T11:45:00.708Z,25.95
2022-10-28T11:47:38.008Z,26.37
2022-10-28T11:50:17.101Z,26.04
2022-10-28T11:52:51.037Z,26.37
2022-10-28T11:55:19.684Z,27.16
2022-10-28T11:57:50.516Z,26.25
2022-10-28T12:00:35.730Z,26.20
2022-10-28T12:03:06.461Z,26.68
2022-10-28T12:05:34.553Z,26.74
2022-10-28T12:08:05.607Z,27.00
2022-10-28T12:10:36.371Z,26.75
2022-10-28T12:13:07.584Z,26.38
2022-10-28T12:15:39.182Z,26.26
2022-10-28T12:18:08.321Z,26.68
2022-10-28T12:20:36.708Z,26.81
2022-10-28T12:23:04.385Z,26.63
2022-10-28T12:25:32.170Z,26.98
2022-10-28T12:28:00.173Z,26.45
2022-10-28T12:30:29.751Z,26.51
2022-10-28T12:32:59.436Z,26.21
2022-10-28T12:35:28.428Z,26.40
2022-10-28T12:37:57.581Z,26.97
2022-10-28T12:40:26.047Z,26.89
2022-10-28T12:42:55.007Z,26.57
2022-10-28T12:45:22.761Z,26.46
2022-10-28T12:47:52.321Z,26.40
2022-10-28T12:50:21.950Z,26.37
2022-10-28T12:52:50.651Z,26.51
2022-10-28T12:55:20.681Z,26.48
2022-10-28T12:57:49.446Z,26.06
2022-10-28T13:00:17.576Z,25.76
2022-10-28T13:02:46.523Z,25.89
2022-10-28T13:05:19.303Z,26.46
2022-10-28T13:07:52.428Z,26.20
2022-10-28T13:10:24.339Z,26.42
2022-10-28T13:13:00.911Z,26.40
2022-10-28T13:15:49.707Z,25.89
2022-10-28T13:18:32.036Z,25.46
2022-10-28T13:21:03.299Z,25.20
2022-10-28T13:23:31.088Z,26.05
2022-10-28T13:26:00.601Z,26.11
2022-10-28T13:28:30.843Z,25.60
2022-10-28T13:30:58.516Z,25.44
2022-10-28T13:33:26.362Z,25.46
2022-10-28T13:38:27.698Z,25.92
2022-10-28T13:41:13.195Z,25.06
2022-10-28T13:43:59.444Z,25.92
2022-10-28T13:46:45.620Z,25.39
2022-10-28T13:49:25.420Z,26.13
2022-10-28T13:51:53.779Z,25.71
2022-10-28T13:54:29.482Z,25.29
2022-10-28T13:56:56.996Z,25.44
2022-10-28T13:59:29.253Z,25.94
2022-10-28T14:02:32.439Z,25.89
2022-10-28T14:04:58.677Z,25.66
2022-10-28T14:07:27.946Z,25.10
2022-10-28T14:09:58.401Z,25.10
2022-10-28T14:12:27.066Z,25.26
2022-10-28T14:14:56.247Z,25.58
2022-10-28T14:17:24.499Z,25.22
2022-10-28T14:19:52.104Z,25.62
2022-10-28T14:22:28.222Z,25.24
2022-10-28T14:24:57.151Z,25.04
2022-10-28T14:27:51.828Z,24.97
2022-10-28T14:30:23.505Z,24.64
2022-10-28T14:33:01.788Z,25.06
2022-10-28T14:35:33.755Z,24.79
2022-10-28T14:38:20.271Z,24.84
2022-10-28T14:40:50.262Z,24.36
2022-10-28T14:43:22.898Z,24.23
2022-10-28T14:45:54.558Z,23.51
2022-10-28T14:48:34.285Z,23.97
2022-10-28T14:51:01.768Z,24.00
2022-10-28T14:53:30.203Z,24.27
2022-10-28T14:56:00.258Z,24.37
2022-10-28T14:58:29.863Z,23.90
2022-10-28T15:01:00.791Z,24.41
2022-10-28T15:03:28.292Z,23.68
2022-10-28T15:05:56.246Z,24.03
2022-10-28T15:08:24.988Z,24.13
2022-10-28T15:10:52.460Z,24.46
2022-10-28T15:13:22.202Z,24.30
2022-10-28T15:15:53.107Z,23.11
2022-10-28T15:18:22.016Z,23.80
2022-10-28T15:20:49.930Z,23.68
2022-10-28T15:23:18.775Z,24.26
2022-10-28T15:25:46.478Z,23.99
2022-10-28T15:28:14.188Z,23.23
2022-10-28T15:30:46.299Z,23.68
2022-10-28T15:33:20.459Z,24.42
2022-10-28T15:35:48.063Z,24.19
2022-10-28T15:38:25.690Z,24.17
2022-10-28T15:40:53.143Z,23.99
2022-10-28T15:43:21.056Z,23.58
2022-10-28T15:45:49.950Z,23.86
2022-10-28T15:48:20.514Z,24.33
2022-10-28T15:50:48.024Z,23.92
2022-10-28T15:53:22.285Z,24.15
2022-10-28T15:58:38.903Z,23.87
2022-10-28T16:01:09.867Z,23.69
2022-10-28T16:03:46.121Z,23.27
2022-10-28T16:06:23.292Z,23.28
2022-10-28T16:08:58.624Z,23.78
2022-10-28T16:11:26.109Z,23.69
2022-10-28T16:13:53.589Z,23.33
2022-10-28T16:16:25.244Z,22.99
2022-10-28T16:18:54.241Z,23.37
2022-10-28T16:21:22.569Z,23.19
2022-10-28T16:23:50.584Z,22.95
2022-10-28T16:26:18.163Z,22.82
2022-10-28T16:28:45.598Z,22.87
2022-10-28T16:31:14.976Z,22.99
2022-10-28T16:33:43.823Z,22.72
2022-10-28T16:36:11.403Z,22.76
2022-10-28T16:38:38.986Z,22.97
2022-10-28T16:41:06.922Z,22.70
2022-10-28T16:43:34.372Z,23.01
2022-10-28T16:46:01.831Z,22.96
2022-10-28T16:48:29.982Z,22.70
2022-10-28T16:50:59.190Z,22.29
2022-10-28T16:53:26.634Z,22.07
2022-10-28T16:55:58.807Z,22.93
2022-10-28T16:58:26.971Z,22.30
2022-10-28T17:00:54.602Z,22.55
2022-10-28T17:03:22.106Z,22.42
2022-10-28T17:05:49.579Z,22.61
2022-10-28T17:08:36.118Z,22.27
2022-10-28T17:11:05.936Z,22.92
2022-10-28T17:13:34.262Z,22.87
2022-10-28T17:16:01.701Z,22.18
2022-10-28T17:18:29.159Z,22.70
2022-10-28T17:21:00.761Z,22.44
2022-10-28T17:23:29.574Z,22.58
2022-10-28T17:25:57.503Z,22.41
2022-10-28T17:28:25.124Z,21.87
2022-10-28T17:30:52.615Z,21.95
2022-10-28T17:33:20.081Z,22.54
2022-10-28T17:35:47.581Z,22.53
2022-10-28T17:38:15.036Z,21.82
2022-10-28T17:40:43.860Z,21.46
2022-10-28T17:43:11.375Z,22.43
2022-10-28T17:45:38.880Z,22.02
2022-10-28T17:48:06.516Z,22.06
2022-10-28T17:50:33.998Z,21.83
2022-10-28T17:53:01.509Z,21.91
2022-10-28T17:55:29.043Z,21.66
2022-10-28T17:57:57.977Z,21.50
2022-10-28T18:00:25.605Z,21.74
2022-10-28T18:02:55.759Z,21.44
2022-10-28T18:05:23.260Z,21.05
2022-10-28T18:07:50.726Z,21.08
2022-10-28T18:10:18.332Z,21.91
2022-10-28T18:12:45.802Z,21.73
2022-10-28T18:15:14.747Z,22.02
2022-10-28T18:17:42.276Z,21.81
2022-10-28T18:20:10.184Z,22.03
2022-10-28T18:22:37.689Z,22.25
2022-10-28T18:25:05.457Z,21.98
2022-10-28T18:27:32.915Z,21.57
2022-10-28T18:30:00.400Z,22.19
2022-10-28T18:32:29.194Z,21.75
2022-10-28T18:34:56.695Z,21.05
2022-10-28T18:37:24.292Z,21.44
2022-10-28T18:39:51.753Z,21.49
2022-10-28T18:42:21.930Z,21.89
2022-10-28T18:44:49.690Z,20.60
2022-10-28T18:47:17.160Z,21.63
2022-10-28T18:49:46.252Z,21.10
2022-10-28T18:52:13.703Z,20.70
2022-10-28T18:54:41.136Z,21.80
2022-10-28T18:57:08.619Z,22.22
2022-10-28T18:59:43.284Z,22.02
2022-10-28T19:02:20.122Z,22.39
2022-10-28T19:04:49.143Z,20.86
2022-10-28T19:07:16.622Z,21.46
2022-10-28T19:09:44.103Z,21.59
2022-10-28T19:12:11.541Z,21.07
2022-10-28T19:14:38.991Z,21.43
2022-10-28T19:17:06.472Z,21.71
2022-10-28T19:19:38.450Z,21.27
2022-10-28T19:22:08.373Z,21.40
2022-10-28T19:24:35.859Z,20.96
2022-10-28T19:27:03.896Z,21.15
2022-10-28T19:29:31.433Z,21.83
2022-10-28T19:31:58.936Z,21.08
2022-10-28T19:34:27.208Z,21.35
2022-10-28T19:36:54.693Z,21.24
2022-10-28T19:39:23.538Z,21.88
2022-10-28T19:41:50.976Z,21.98
2022-10-28T19:44:18.427Z,21.21
2022-10-28T19:46:45.928Z,20.65
2022-10-28T19:49:13.399Z,21.21
2022-10-28T19:51:41.399Z,20.88
2022-10-28T19:54:10.263Z,20.47
2022-10-28T19:56:39.446Z,20.66
2022-10-28T19:59:07.401Z,21.03
2022-10-28T20:01:35.924Z,21.07
2022-10-28T20:04:03.584Z,21.09
2022-10-28T20:06:31.854Z,20.71
2022-10-28T20:08:59.302Z,20.26
2022-10-28T20:11:27.336Z,20.80
2022-10-28T20:13:56.481Z,21.06
2022-10-28T20:16:24.154Z,21.65
2022-10-28T20:18:51.639Z,21.27
2022-10-28T20:21:20.059Z,21.35
2022-10-28T20:23:49.298Z,21.77
2022-10-28T20:26:17.019Z,22.16
2022-10-28T20:28:44.476Z,21.55
2022-10-28T20:31:13.712Z,21.42
2022-10-28T20:33:41.808Z,22.05
2022-10-28T20:36:21.765Z,21.38
2022-10-28T20:38:49.231Z,21.71
2022-10-28T20:41:16.685Z,21.27
2022-10-28T20:43:44.151Z,21.52
2022-10-28T20:46:18.920Z,21.00
2022-10-28T20:48:47.541Z,22.12
2022-10-28T20:51:15.216Z,21.60
2022-10-28T20:53:42.770Z,21.86
2022-10-28T20:56:15.059Z,21.47
2022-10-28T20:58:42.563Z,21.81
2022-10-28T21:01:14.785Z,22.14
2022-10-28T21:03:43.958Z,21.86
2022-10-28T21:06:11.472Z,21.16
2022-10-28T21:08:38.931Z,21.51
2022-10-28T21:11:06.704Z,21.24
2022-10-28T21:13:34.360Z,20.67
2022-10-28T21:16:04.200Z,21.16
2022-10-28T21:18:31.673Z,20.62
2022-10-28T21:21:00.679Z,20.86
2022-10-28T21:23:28.435Z,20.47
2022-10-28T21:25:55.924Z,20.06
2022-10-28T21:28:23.440Z,20.07
2022-10-28T21:30:50.875Z,20.77
2022-10-28T21:33:18.905Z,20.81
2022-10-28T21:35:54.993Z,20.70
2022-10-28T21:38:24.141Z,20.38
2022-10-28T21:41:00.000Z,20.33
2022-10-28T21:43:29.168Z,20.42
2022-10-28T21:45:56.934Z,20.22
2022-10-28T21:48:24.824Z,20.35
2022-10-28T21:50:52.909Z,20.57
2022-10-28T21:53:20.960Z,20.62
2022-10-28T21:55:51.159Z,20.57
2022-10-28T21:58:19.349Z,20.19
2022-10-28T22:00:47.107Z,20.42
2022-10-28T22:03:15.338Z,20.62
2022-10-28T22:05:50.580Z,20.91
2022-10-28T22:08:18.294Z,20.68
2022-10-28T22:10:45.975Z,20.46
2022-10-28T22:13:14.967Z,20.68
2022-10-28T22:15:42.605Z,20.67
2022-10-28T22:18:10.219Z,20.41
2022-10-28T22:20:37.868Z,20.62
2022-10-28T22:23:05.510Z,20.67
2022-10-28T22:25:33.168Z,20.63
2022-10-28T22:28:00.828Z,20.59
2022-10-28T22:30:29.837Z,20.66
2022-10-28T22:32:57.727Z,20.61
2022-10-28T22:35:25.534Z,20.47
2022-10-28T22:37:53.369Z,20.40
2022-10-28T22:40:21.149Z,20.41
2022-10-28T22:42:48.805Z,20.14
2022-10-28T22:45:16.607Z,20.14
2022-10-28T22:47:45.602Z,19.11
2022-10-28T22:50:13.235Z,19.60
2022-10-28T22:52:40.868Z,19.63
2022-10-28T22:55:09.053Z,19.57
2022-10-28T22:57:36.705Z,18.95
2022-10-28T23:00:04.731Z,19.46
2022-10-28T23:02:32.547Z,19.22
2022-10-28T23:05:01.784Z,19.03
2022-10-28T23:07:29.421Z,19.60
2022-10-28T23:09:58.778Z,19.84
2022-10-28T23:12:26.437Z,19.61
2022-10-28T23:14:54.149Z,19.36
2022-10-28T23:17:21.799Z,19.67
2022-10-28T23:19:49.516Z,19.38
2022-10-28T23:22:18.541Z,19.26
2022-10-28T23:24:46.173Z,19.71
2022-10-28T23:27:13.827Z,19.32
2022-10-28T23:29:41.603Z,19.40
2022-10-28T23:32:09.243Z,19.59
2022-10-28T23:34:36.864Z,19.68
2022-10-28T23:37:04.971Z,19.78
2022-10-28T23:39:33.961Z,19.79
2022-10-28T23:42:01.580Z,19.74
2022-10-28T23:44:29.222Z,19.79
2022-10-28T23:46:56.845Z,19.76
2022-10-28T23:49:24.587Z,19.67
2022-10-28T23:51:52.215Z,19.63
2022-10-28T23:54:19.837Z,19.52
2022-10-28T23:56:48.868Z,19.53
2022-10-28T23:59:16.519Z,19.65
